Seadream 1 — C6PW8 — position and weather

sailwx.info

Track history (hours):
 
Tides and Currents Weather Stations Pressure Air Temp Water Temp Dewpoint Dewpoint Depression Visibility Wind Speed Wind Dir Waves Ship Positions

Seadream 1

Last reported at 2018-Jun-19 22:13 UTC. Time now 2018-Jun-21 23:56 UTC.
Position N 37°52' E 015°52'.

Length 105 m; draft 4.3 m.

Type: Ship. MMSI: 308908000.

Date/timePositionNaut miles runAvg speedWind from/ knotsBaromVisibWave heightAir tempDewpointWater temp
2018-Jun-19 22:13N 37°52' E 015°52'313.3
2018-Jun-19 21:59N 37°52' E 015°49'613.1
2018-Jun-19 21:30N 37°52' E 015°41'713.2
2018-Jun-19 20:59N 37°51' E 015°32'12 0.7
2018-Jun-19 04:14N 38°03' E 015°30'2 9.2
2018-Jun-19 04:00N 38°05' E 015°32'612.0
2018-Jun-19 03:29N 38°10' E 015°35'712.9
2018-Jun-19 02:58N 38°16' E 015°40'612.3
2018-Jun-19 02:29N 38°22' E 015°39'13510.9
2018-Jun-18 14:07N 40°29' E 014°40'111.2
2018-Jun-18 14:00N 40°30' E 014°40'511.1
2018-Jun-18 13:30N 40°35' E 014°38'2 0.1
2018-Jun-17 16:35N 40°37' E 014°35'110.8
2018-Jun-17 16:30N 40°36' E 014°34'510.5
2018-Jun-17 16:00N 40°34' E 014°28'611.1
2018-Jun-17 15:30N 40°33' E 014°21'5 9.5
2018-Jun-17 15:00N 40°34' E 014°15'0 0.9
2018-Jun-17 14:30N 40°34' E 014°14'0 0.0
2018-Jun-17 14:00N 40°34' E 014°14'0 0.0
2018-Jun-17 13:28N 40°34' E 014°14'0 0.1
2018-Jun-17 12:55N 40°34' E 014°14'0 0.0
2018-Jun-17 12:28N 40°34' E 014°14'0 0.0
2018-Jun-17 11:59N 40°34' E 014°14'0 0.0
2018-Jun-17 11:26N 40°34' E 014°14'0 0.0
2018-Jun-17 10:59N 40°34' E 014°14'0 0.0
2018-Jun-17 10:30N 40°34' E 014°14'0 0.0
2018-Jun-17 10:00N 40°34' E 014°14'0 0.0
2018-Jun-17 09:30N 40°34' E 014°14'0 0.0
2018-Jun-17 08:58N 40°34' E 014°14'0 0.0
2018-Jun-17 08:25N 40°34' E 014°14'0 0.0
2018-Jun-17 07:58N 40°34' E 014°14'0 0.0
2018-Jun-17 07:29N 40°34' E 014°14'0 0.0
2018-Jun-17 06:59N 40°34' E 014°14'0 0.1
2018-Jun-17 06:29N 40°34' E 014°14'2 4.7
2018-Jun-17 06:00N 40°35' E 014°11'4 9.0
2018-Jun-17 05:30N 40°36' E 014°06'5 9.5
2018-Jun-17 05:00N 40°37' E 013°60'510.1
2018-Jun-17 04:30N 40°38' E 013°53'510.3
2018-Jun-17 04:00N 40°42' E 013°48'510.2
2018-Jun-17 03:30N 40°45' E 013°42'510.0
2018-Jun-17 03:00N 40°48' E 013°37'165 6.1
2018-Jun-16 00:06N 42°30' E 010°43'213.8
2018-Jun-15 23:59N 42°30' E 010°41'713.8
2018-Jun-15 23:30N 42°33' E 010°33'813.8
2018-Jun-15 22:58N 42°36' E 010°23'613.7
2018-Jun-15 22:30N 42°38' E 010°15'813.3
2018-Jun-15 21:53N 42°42' E 010°05'1413.0
2018-Jun-15 20:50N 42°55' E 009°60'413.8
2018-Jun-15 20:30N 42°60' E 009°59'713.9
2018-Jun-15 20:01N 43°06' E 009°57'714.2
2018-Jun-15 19:30N 43°13' E 009°52'714.1
2018-Jun-15 19:01N 43°19' E 009°48'714.2
2018-Jun-15 18:31N 43°25' E 009°44'713.8
2018-Jun-15 18:00N 43°32' E 009°40'713.7
2018-Jun-15 17:30N 43°38' E 009°36'611.1
2018-Jun-15 17:00N 43°43' E 009°36'713.3
2018-Jun-15 16:30N 43°48' E 009°43'612.4
2018-Jun-15 16:00N 43°53' E 009°47'612.6
2018-Jun-15 15:30N 43°59' E 009°51'4 8.4
2018-Jun-15 15:01N 44°03' E 009°51'0 0.0
2018-Jun-15 14:30N 44°03' E 009°51'0 0.0
2018-Jun-15 14:00N 44°03' E 009°51'0 0.0
2018-Jun-15 13:28N 44°03' E 009°51'0 0.0
2018-Jun-15 12:58N 44°03' E 009°51'0 0.0
2018-Jun-15 12:25N 44°03' E 009°51'0 0.1
2018-Jun-15 11:59N 44°03' E 009°51'0 0.1
2018-Jun-15 11:29N 44°03' E 009°51'0 0.0
2018-Jun-15 10:59N 44°03' E 009°51'0 0.1
2018-Jun-15 10:30N 44°03' E 009°51'0 0.0
2018-Jun-15 10:00N 44°03' E 009°51'0 0.0
2018-Jun-15 09:30N 44°03' E 009°51'0 0.0
2018-Jun-15 08:58N 44°03' E 009°51'0 0.0
2018-Jun-15 08:28N 44°03' E 009°51'0 0.0
2018-Jun-15 07:58N 44°03' E 009°51'0 0.0
2018-Jun-15 07:29N 44°03' E 009°51'0 0.0
2018-Jun-15 06:59N 44°03' E 009°51'0 0.0
2018-Jun-15 06:17N 44°03' E 009°51'0 0.0
2018-Jun-15 06:00N 44°03' E 009°51'0 0.3
2018-Jun-15 05:30N 44°03' E 009°51'3 5.9
2018-Jun-15 05:00N 44°02' E 009°55'2 3.8
2018-Jun-15 04:30N 43°60' E 009°55'3 6.6
2018-Jun-15 04:00N 43°60' E 009°50'3 6.4
2018-Jun-15 03:31N 44°01' E 009°46'3 6.7
2018-Jun-15 03:00N 44°01' E 009°41'3 6.5
2018-Jun-15 02:31N 44°03' E 009°38'3 6.6
2018-Jun-15 02:01N 44°06' E 009°34'3 6.4
2018-Jun-15 01:30N 44°07' E 009°31'3 6.3
2018-Jun-15 01:00N 44°09' E 009°27'3 6.4
2018-Jun-15 00:30N 44°10' E 009°23'3 6.3
2018-Jun-15 00:00N 44°12' E 009°19'3 5.9
2018-Jun-14 23:30N 44°15' E 009°17'3 6.1
2018-Jun-14 23:01N 44°17' E 009°15'2 2.9
2018-Jun-14 22:28N 44°19' E 009°14'0 0.1
2018-Jun-14 21:59N 44°19' E 009°14'0 0.0
2018-Jun-14 21:29N 44°19' E 009°14'0 0.0
2018-Jun-14 20:50N 44°19' E 009°14'0 0.0
2018-Jun-14 20:30N 44°19' E 009°14'0 0.0
2018-Jun-14 19:57N 44°19' E 009°14'0 0.0
2018-Jun-14 19:30N 44°19' E 009°14'0 0.0
2018-Jun-14 18:58N 44°19' E 009°14'0 0.0
2018-Jun-14 18:28N 44°19' E 009°14'0 0.0
2018-Jun-14 17:58N 44°19' E 009°14'0 0.1
2018-Jun-14 17:26N 44°19' E 009°14'0 0.1
2018-Jun-14 16:59N 44°19' E 009°14'0 0.0
2018-Jun-14 16:26N 44°19' E 009°14'0 0.0
2018-Jun-14 16:00N 44°19' E 009°14'0 0.0
2018-Jun-14 15:24N 44°19' E 009°14'0 0.0
2018-Jun-14 14:51N 44°19' E 009°14'0 0.1
2018-Jun-14 14:28N 44°19' E 009°14'0 0.0
2018-Jun-14 13:58N 44°19' E 009°14'0 0.0
2018-Jun-14 13:28N 44°19' E 009°14'0 0.0
2018-Jun-14 12:56N 44°19' E 009°14'0 0.0
2018-Jun-14 12:29N 44°19' E 009°14'0 0.0
2018-Jun-14 11:59N 44°19' E 009°14'0 0.0
2018-Jun-14 11:27N 44°19' E 009°14'0 0.0
2018-Jun-14 10:54N 44°19' E 009°14'0 0.0
2018-Jun-14 10:30N 44°19' E 009°14'0 0.0
2018-Jun-14 09:55N 44°19' E 009°14'0 0.0
2018-Jun-14 09:22N 44°19' E 009°14'0 0.0
2018-Jun-14 08:58N 44°19' E 009°14'0 0.0
2018-Jun-14 08:17N 44°19' E 009°14'0 0.1
2018-Jun-14 07:59N 44°19' E 009°14'0 0.1
2018-Jun-14 07:30N 44°19' E 009°14'3 6.1
2018-Jun-14 07:01N 44°17' E 009°17'5 9.3
2018-Jun-14 06:30N 44°14' E 009°11'5 9.5
2018-Jun-14 06:01N 44°12' E 009°06'5 9.7
2018-Jun-14 05:30N 44°09' E 009°00'5 9.7
2018-Jun-14 05:01N 44°07' E 008°54'510.0
2018-Jun-14 04:31N 44°05' E 008°48'510.0
2018-Jun-14 04:00N 44°02' E 008°42'510.2
2018-Jun-14 03:31N 43°60' E 008°35'510.4
2018-Jun-14 03:00N 43°57' E 008°29'510.4
2018-Jun-14 02:30N 43°55' E 008°23'612.9
2018-Jun-14 02:00N 43°51' E 008°15'612.7
2018-Jun-14 01:30N 43°48' E 008°08'3813.1
2018-Jun-13 22:35N 43°32' E 007°20'213.3
2018-Jun-13 22:26N 43°31' E 007°18'613.2
2018-Jun-13 22:00N 43°28' E 007°11'713.3
2018-Jun-13 21:31N 43°25' E 007°02'7 0.4
2018-Jun-13 03:01N 43°19' E 006°58'0 5.0
2018-Jun-13 03:01N 43°19' E 006°58'2 4.6
2018-Jun-13 02:30N 43°19' E 007°01'2 4.7
2018-Jun-13 02:00N 43°19' E 007°05'2 4.8
2018-Jun-13 01:31N 43°19' E 007°08'3 4.9
2018-Jun-13 00:59N 43°19' E 007°11'2 4.8
2018-Jun-13 00:30N 43°20' E 007°14'2 4.8
2018-Jun-13 00:00N 43°22' E 007°17'3 5.2
2018-Jun-12 23:30N 43°25' E 007°17'2 5.0
2018-Jun-12 23:00N 43°27' E 007°17'3 5.1
2018-Jun-12 22:30N 43°30' E 007°17'3 5.3
2018-Jun-12 22:00N 43°32' E 007°17'3 5.1
2018-Jun-12 21:22N 43°36' E 007°17'3 5.2
2018-Jun-12 20:43N 43°39' E 007°17'2 0.1
2018-Jun-12 05:32N 43°41' E 007°17'1 8.7
2018-Jun-12 05:26N 43°40' E 007°18'4 9.7
2018-Jun-12 05:00N 43°36' E 007°20'610.4
2018-Jun-12 04:24N 43°30' E 007°24'410.7
2018-Jun-12 03:59N 43°26' E 007°27'3310.7
2018-Jun-12 00:56N 42°57' E 007°46'511.4
2018-Jun-12 00:30N 42°53' E 007°49'2413.2
2018-Jun-11 22:42N 42°31' E 008°03'79 3.6
2018-Jun-11 00:29N 42°02' E 009°43'510.5
2018-Jun-11 00:00N 42°07' E 009°45'2010.4
2018-Jun-10 22:03N 42°26' E 009°52'010.5
2018-Jun-10 22:01N 42°27' E 009°52'510.3
2018-Jun-10 21:30N 42°31' E 009°55'510.4
2018-Jun-10 21:00N 42°36' E 009°57'510.7
2018-Jun-10 20:30N 42°41' E 009°60'510.4
2018-Jun-10 20:00N 42°46' E 010°02'5 9.7
2018-Jun-10 19:31N 42°50' E 010°05'510.0
2018-Jun-10 19:01N 42°52' E 010°12'5 9.7
2018-Jun-10 18:30N 42°51' E 010°18'3 6.3
2018-Jun-10 18:00N 42°48' E 010°20'0 0.1
2018-Jun-10 17:15N 42°48' E 010°20'0 0.1
2018-Jun-10 17:00N 42°48' E 010°20'0 0.0
2018-Jun-10 16:28N 42°48' E 010°20'0 0.0
2018-Jun-10 14:35N 42°48' E 010°20'0 0.1
2018-Jun-10 14:20N 42°48' E 010°20'0 0.0
2018-Jun-10 09:32N 42°48' E 010°20'0 0.0
2018-Jun-10 09:21N 42°48' E 010°20'0 0.0
2018-Jun-10 08:51N 42°48' E 010°20'0 0.0
2018-Jun-10 06:22N 42°48' E 010°20'3 7.1
2018-Jun-10 06:00N 42°51' E 010°22'4 5.9
2018-Jun-10 05:24N 42°53' E 010°26'3 6.9
2018-Jun-10 05:01N 42°51' E 010°28'4 7.3
2018-Jun-10 04:28N 42°48' E 010°32'3 7.3
2018-Jun-10 04:00N 42°45' E 010°35'6 6.5
2018-Jun-10 03:04N 42°40' E 010°40'11 6.1
2018-Jun-10 01:17N 42°33' E 010°50'  
Track history (hours):
 
Tides and Currents Weather Stations Pressure Air Temp Water Temp Dewpoint Dewpoint Depression Visibility Wind Speed Wind Dir Waves Ship Positions

Seadream 1

Last reported at 2018-Jun-19 22:13 UTC. Time now 2018-Jun-21 23:56 UTC.
Position N 37°52' E 015°52'.

Length 105 m; draft 4.3 m.

Type: Ship. MMSI: 308908000.

Date/timePositionNaut miles runAvg speedWind from/ knotsBaromVisibWave heightAir tempDewpointWater temp
2018-Jun-19 22:13N 37°52' E 015°52'313.3
2018-Jun-19 21:59N 37°52' E 015°49'613.1
2018-Jun-19 21:30N 37°52' E 015°41'713.2
2018-Jun-19 20:59N 37°51' E 015°32'12 0.7
2018-Jun-19 04:14N 38°03' E 015°30'2 9.2
2018-Jun-19 04:00N 38°05' E 015°32'612.0
2018-Jun-19 03:29N 38°10' E 015°35'712.9
2018-Jun-19 02:58N 38°16' E 015°40'612.3
2018-Jun-19 02:29N 38°22' E 015°39'13510.9
2018-Jun-18 14:07N 40°29' E 014°40'111.2
2018-Jun-18 14:00N 40°30' E 014°40'511.1
2018-Jun-18 13:30N 40°35' E 014°38'2 0.1
2018-Jun-17 16:35N 40°37' E 014°35'110.8
2018-Jun-17 16:30N 40°36' E 014°34'510.5
2018-Jun-17 16:00N 40°34' E 014°28'611.1
2018-Jun-17 15:30N 40°33' E 014°21'5 9.5
2018-Jun-17 15:00N 40°34' E 014°15'0 0.9
2018-Jun-17 14:30N 40°34' E 014°14'0 0.0
2018-Jun-17 14:00N 40°34' E 014°14'0 0.0
2018-Jun-17 13:28N 40°34' E 014°14'0 0.1
2018-Jun-17 12:55N 40°34' E 014°14'0 0.0
2018-Jun-17 12:28N 40°34' E 014°14'0 0.0
2018-Jun-17 11:59N 40°34' E 014°14'0 0.0
2018-Jun-17 11:26N 40°34' E 014°14'0 0.0
2018-Jun-17 10:59N 40°34' E 014°14'0 0.0
2018-Jun-17 10:30N 40°34' E 014°14'0 0.0
2018-Jun-17 10:00N 40°34' E 014°14'0 0.0
2018-Jun-17 09:30N 40°34' E 014°14'0 0.0
2018-Jun-17 08:58N 40°34' E 014°14'0 0.0
2018-Jun-17 08:25N 40°34' E 014°14'0 0.0
2018-Jun-17 07:58N 40°34' E 014°14'0 0.0
2018-Jun-17 07:29N 40°34' E 014°14'0 0.0
2018-Jun-17 06:59N 40°34' E 014°14'0 0.1
2018-Jun-17 06:29N 40°34' E 014°14'2 4.7
2018-Jun-17 06:00N 40°35' E 014°11'4 9.0
2018-Jun-17 05:30N 40°36' E 014°06'5 9.5
2018-Jun-17 05:00N 40°37' E 013°60'510.1
2018-Jun-17 04:30N 40°38' E 013°53'510.3
2018-Jun-17 04:00N 40°42' E 013°48'510.2
2018-Jun-17 03:30N 40°45' E 013°42'510.0
2018-Jun-17 03:00N 40°48' E 013°37'165 6.1
2018-Jun-16 00:06N 42°30' E 010°43'213.8
2018-Jun-15 23:59N 42°30' E 010°41'713.8
2018-Jun-15 23:30N 42°33' E 010°33'813.8
2018-Jun-15 22:58N 42°36' E 010°23'613.7
2018-Jun-15 22:30N 42°38' E 010°15'813.3
2018-Jun-15 21:53N 42°42' E 010°05'1413.0
2018-Jun-15 20:50N 42°55' E 009°60'413.8
2018-Jun-15 20:30N 42°60' E 009°59'713.9
2018-Jun-15 20:01N 43°06' E 009°57'714.2
2018-Jun-15 19:30N 43°13' E 009°52'714.1
2018-Jun-15 19:01N 43°19' E 009°48'714.2
2018-Jun-15 18:31N 43°25' E 009°44'713.8
2018-Jun-15 18:00N 43°32' E 009°40'713.7
2018-Jun-15 17:30N 43°38' E 009°36'611.1
2018-Jun-15 17:00N 43°43' E 009°36'713.3
2018-Jun-15 16:30N 43°48' E 009°43'612.4
2018-Jun-15 16:00N 43°53' E 009°47'612.6
2018-Jun-15 15:30N 43°59' E 009°51'4 8.4
2018-Jun-15 15:01N 44°03' E 009°51'0 0.0
2018-Jun-15 14:30N 44°03' E 009°51'0 0.0
2018-Jun-15 14:00N 44°03' E 009°51'0 0.0
2018-Jun-15 13:28N 44°03' E 009°51'0 0.0
2018-Jun-15 12:58N 44°03' E 009°51'0 0.0
2018-Jun-15 12:25N 44°03' E 009°51'0 0.1
2018-Jun-15 11:59N 44°03' E 009°51'0 0.1
2018-Jun-15 11:29N 44°03' E 009°51'0 0.0
2018-Jun-15 10:59N 44°03' E 009°51'0 0.1
2018-Jun-15 10:30N 44°03' E 009°51'0 0.0
2018-Jun-15 10:00N 44°03' E 009°51'0 0.0
2018-Jun-15 09:30N 44°03' E 009°51'0 0.0
2018-Jun-15 08:58N 44°03' E 009°51'0 0.0
2018-Jun-15 08:28N 44°03' E 009°51'0 0.0
2018-Jun-15 07:58N 44°03' E 009°51'0 0.0
2018-Jun-15 07:29N 44°03' E 009°51'0 0.0
2018-Jun-15 06:59N 44°03' E 009°51'0 0.0
2018-Jun-15 06:17N 44°03' E 009°51'0 0.0
2018-Jun-15 06:00N 44°03' E 009°51'0 0.3
2018-Jun-15 05:30N 44°03' E 009°51'3 5.9
2018-Jun-15 05:00N 44°02' E 009°55'2 3.8
2018-Jun-15 04:30N 43°60' E 009°55'3 6.6
2018-Jun-15 04:00N 43°60' E 009°50'3 6.4
2018-Jun-15 03:31N 44°01' E 009°46'3 6.7
2018-Jun-15 03:00N 44°01' E 009°41'3 6.5
2018-Jun-15 02:31N 44°03' E 009°38'3 6.6
2018-Jun-15 02:01N 44°06' E 009°34'3 6.4
2018-Jun-15 01:30N 44°07' E 009°31'3 6.3
2018-Jun-15 01:00N 44°09' E 009°27'3 6.4
2018-Jun-15 00:30N 44°10' E 009°23'3 6.3
2018-Jun-15 00:00N 44°12' E 009°19'3 5.9
2018-Jun-14 23:30N 44°15' E 009°17'3 6.1
2018-Jun-14 23:01N 44°17' E 009°15'2 2.9
2018-Jun-14 22:28N 44°19' E 009°14'0 0.1
2018-Jun-14 21:59N 44°19' E 009°14'0 0.0
2018-Jun-14 21:29N 44°19' E 009°14'0 0.0
2018-Jun-14 20:50N 44°19' E 009°14'0 0.0
2018-Jun-14 20:30N 44°19' E 009°14'0 0.0
2018-Jun-14 19:57N 44°19' E 009°14'0 0.0
2018-Jun-14 19:30N 44°19' E 009°14'0 0.0
2018-Jun-14 18:58N 44°19' E 009°14'0 0.0
2018-Jun-14 18:28N 44°19' E 009°14'0 0.0
2018-Jun-14 17:58N 44°19' E 009°14'0 0.1
2018-Jun-14 17:26N 44°19' E 009°14'0 0.1
2018-Jun-14 16:59N 44°19' E 009°14'0 0.0
2018-Jun-14 16:26N 44°19' E 009°14'0 0.0
2018-Jun-14 16:00N 44°19' E 009°14'0 0.0
2018-Jun-14 15:24N 44°19' E 009°14'0 0.0
2018-Jun-14 14:51N 44°19' E 009°14'0 0.1
2018-Jun-14 14:28N 44°19' E 009°14'0 0.0
2018-Jun-14 13:58N 44°19' E 009°14'0 0.0
2018-Jun-14 13:28N 44°19' E 009°14'0 0.0
2018-Jun-14 12:56N 44°19' E 009°14'0 0.0
2018-Jun-14 12:29N 44°19' E 009°14'0 0.0
2018-Jun-14 11:59N 44°19' E 009°14'0 0.0
2018-Jun-14 11:27N 44°19' E 009°14'0 0.0
2018-Jun-14 10:54N 44°19' E 009°14'0 0.0
2018-Jun-14 10:30N 44°19' E 009°14'0 0.0
2018-Jun-14 09:55N 44°19' E 009°14'0 0.0
2018-Jun-14 09:22N 44°19' E 009°14'0 0.0
2018-Jun-14 08:58N 44°19' E 009°14'0 0.0
2018-Jun-14 08:17N 44°19' E 009°14'0 0.1
2018-Jun-14 07:59N 44°19' E 009°14'0 0.1
2018-Jun-14 07:30N 44°19' E 009°14'3 6.1
2018-Jun-14 07:01N 44°17' E 009°17'5 9.3
2018-Jun-14 06:30N 44°14' E 009°11'5 9.5
2018-Jun-14 06:01N 44°12' E 009°06'5 9.7
2018-Jun-14 05:30N 44°09' E 009°00'5 9.7
2018-Jun-14 05:01N 44°07' E 008°54'510.0
2018-Jun-14 04:31N 44°05' E 008°48'510.0
2018-Jun-14 04:00N 44°02' E 008°42'510.2
2018-Jun-14 03:31N 43°60' E 008°35'510.4
2018-Jun-14 03:00N 43°57' E 008°29'510.4
2018-Jun-14 02:30N 43°55' E 008°23'612.9
2018-Jun-14 02:00N 43°51' E 008°15'612.7
2018-Jun-14 01:30N 43°48' E 008°08'3813.1
2018-Jun-13 22:35N 43°32' E 007°20'213.3
2018-Jun-13 22:26N 43°31' E 007°18'613.2
2018-Jun-13 22:00N 43°28' E 007°11'713.3
2018-Jun-13 21:31N 43°25' E 007°02'7 0.4
2018-Jun-13 03:01N 43°19' E 006°58'0 5.0
2018-Jun-13 03:01N 43°19' E 006°58'2 4.6
2018-Jun-13 02:30N 43°19' E 007°01'2 4.7
2018-Jun-13 02:00N 43°19' E 007°05'2 4.8
2018-Jun-13 01:31N 43°19' E 007°08'3 4.9
2018-Jun-13 00:59N 43°19' E 007°11'2 4.8
2018-Jun-13 00:30N 43°20' E 007°14'2 4.8
2018-Jun-13 00:00N 43°22' E 007°17'3 5.2
2018-Jun-12 23:30N 43°25' E 007°17'2 5.0
2018-Jun-12 23:00N 43°27' E 007°17'3 5.1
2018-Jun-12 22:30N 43°30' E 007°17'3 5.3
2018-Jun-12 22:00N 43°32' E 007°17'3 5.1
2018-Jun-12 21:22N 43°36' E 007°17'3 5.2
2018-Jun-12 20:43N 43°39' E 007°17'2 0.1
2018-Jun-12 05:32N 43°41' E 007°17'1 8.7
2018-Jun-12 05:26N 43°40' E 007°18'4 9.7
2018-Jun-12 05:00N 43°36' E 007°20'610.4
2018-Jun-12 04:24N 43°30' E 007°24'410.7
2018-Jun-12 03:59N 43°26' E 007°27'3310.7
2018-Jun-12 00:56N 42°57' E 007°46'511.4
2018-Jun-12 00:30N 42°53' E 007°49'2413.2
2018-Jun-11 22:42N 42°31' E 008°03'79 3.6
2018-Jun-11 00:29N 42°02' E 009°43'510.5
2018-Jun-11 00:00N 42°07' E 009°45'2010.4
2018-Jun-10 22:03N 42°26' E 009°52'010.5
2018-Jun-10 22:01N 42°27' E 009°52'510.3
2018-Jun-10 21:30N 42°31' E 009°55'510.4
2018-Jun-10 21:00N 42°36' E 009°57'510.7
2018-Jun-10 20:30N 42°41' E 009°60'510.4
2018-Jun-10 20:00N 42°46' E 010°02'5 9.7
2018-Jun-10 19:31N 42°50' E 010°05'510.0
2018-Jun-10 19:01N 42°52' E 010°12'5 9.7
2018-Jun-10 18:30N 42°51' E 010°18'3 6.3
2018-Jun-10 18:00N 42°48' E 010°20'0 0.1
2018-Jun-10 17:15N 42°48' E 010°20'0 0.1
2018-Jun-10 17:00N 42°48' E 010°20'0 0.0
2018-Jun-10 16:28N 42°48' E 010°20'0 0.0
2018-Jun-10 14:35N 42°48' E 010°20'0 0.1
2018-Jun-10 14:20N 42°48' E 010°20'0 0.0
2018-Jun-10 09:32N 42°48' E 010°20'0 0.0
2018-Jun-10 09:21N 42°48' E 010°20'0 0.0
2018-Jun-10 08:51N 42°48' E 010°20'0 0.0
2018-Jun-10 06:22N 42°48' E 010°20'3 7.1
2018-Jun-10 06:00N 42°51' E 010°22'4 5.9
2018-Jun-10 05:24N 42°53' E 010°26'3 6.9
2018-Jun-10 05:01N 42°51' E 010°28'4 7.3
2018-Jun-10 04:28N 42°48' E 010°32'3 7.3
2018-Jun-10 04:00N 42°45' E 010°35'6 6.5
2018-Jun-10 03:04N 42°40' E 010°40'11 6.1
2018-Jun-10 01:17N 42°33' E 010°50'  

Dump ship's entire track history